Gokay K — TCHF — position and weather

sailwx.info

Track history (hours):
 
Tides and Currents Weather Stations Pressure Air Temp Water Temp Dewpoint Dewpoint Depression Visibility Wind Speed Wind Dir Waves Ship Positions

Gokay K

Last reported at 2016-Jan-30 22:14 UTC. Time now 2016-Feb-08 16:52 UTC.
Position N 46°15' E 030°55'.
Warning: this ship's position is 8 days out of date.

Length 118 m; draft 7.5 m.

Type: Ship. MMSI: 271000029.

Date/timePositionNaut miles runAvg speedWind from/ knotsBaromVisibWave heightAir tempDewpointWater temp
2016-Jan-30 22:14N 46°15' E 030°55'7 7.7
2016-Jan-30 21:17N 46°22' E 030°55'6 8.1
2016-Jan-30 20:30N 46°28' E 030°55'41 6.7
2016-Jan-30 14:21N 46°38' E 031°53'6 8.2
2016-Jan-30 13:33N 46°44' E 031°56'7 6.5
2016-Jan-30 12:33N 46°50' E 031°56'7 6.5
2016-Jan-30 11:33N 46°56' E 032°01'1 1.2
2016-Jan-30 10:31N 46°57' E 032°00'0 0.0
2016-Jan-30 09:31N 46°57' E 032°00'0 0.0
2016-Jan-30 08:28N 46°57' E 032°00'0 0.0
2016-Jan-30 07:31N 46°57' E 032°00'0 0.0
2016-Jan-30 06:31N 46°57' E 032°00'0 0.0
2016-Jan-30 05:31N 46°57' E 032°00'0 0.0
2016-Jan-30 04:31N 46°57' E 032°00'0 0.0
2016-Jan-30 03:31N 46°57' E 032°00'0 0.0
2016-Jan-30 02:31N 46°57' E 032°00'0 0.0
2016-Jan-30 01:31N 46°57' E 032°00'0 0.0
2016-Jan-30 00:31N 46°57' E 032°00'0 0.0
2016-Jan-29 23:31N 46°57' E 032°00'0 0.0
2016-Jan-29 22:31N 46°57' E 032°00'0 0.0
2016-Jan-29 21:31N 46°57' E 032°00'0 0.0
2016-Jan-29 20:31N 46°57' E 032°00'0 0.0
2016-Jan-29 19:31N 46°57' E 032°00'0 0.0
2016-Jan-29 18:31N 46°57' E 032°00'0 0.0
2016-Jan-29 17:31N 46°57' E 032°00'0 0.0
2016-Jan-29 16:31N 46°57' E 032°00'0 0.0
2016-Jan-29 15:31N 46°57' E 032°00'0 0.0
2016-Jan-29 14:31N 46°57' E 032°00'0 0.0
2016-Jan-29 13:31N 46°57' E 032°00'0 0.0
2016-Jan-29 12:22N 46°57' E 032°00'0 0.0
2016-Jan-29 11:31N 46°57' E 032°00'0 0.0
2016-Jan-29 10:31N 46°57' E 032°00'0 0.0
2016-Jan-29 09:31N 46°57' E 032°00'0 0.0
2016-Jan-29 08:31N 46°57' E 032°00'0 0.0
2016-Jan-29 07:31N 46°57' E 032°00'0 0.0
2016-Jan-29 06:31N 46°57' E 032°00'0 0.0
2016-Jan-29 05:31N 46°57' E 032°00'0 0.0
2016-Jan-29 04:31N 46°57' E 032°00'0 0.0
2016-Jan-29 03:31N 46°57' E 032°00'0 0.0
2016-Jan-29 02:31N 46°57' E 032°00'0 0.0
2016-Jan-29 01:31N 46°57' E 032°00'0 0.0
2016-Jan-29 00:31N 46°57' E 032°00'0 0.0
2016-Jan-28 23:31N 46°57' E 032°00'0 0.0
2016-Jan-28 22:31N 46°57' E 032°00'0 0.0
2016-Jan-28 21:31N 46°57' E 032°00'0 0.0
2016-Jan-28 20:31N 46°57' E 032°00'0 0.0
2016-Jan-28 19:31N 46°57' E 032°00'0 0.0
2016-Jan-28 18:31N 46°57' E 032°00'0 0.0
2016-Jan-28 17:31N 46°57' E 032°00'0 0.0
2016-Jan-28 16:31N 46°57' E 032°00'0 0.0
2016-Jan-28 15:31N 46°57' E 032°00'0 0.0
2016-Jan-28 14:31N 46°57' E 032°00'0 0.0
2016-Jan-28 13:31N 46°57' E 032°00'0 0.0
2016-Jan-28 12:31N 46°57' E 032°00'0 0.0
2016-Jan-28 11:31N 46°57' E 032°00'0 0.0
2016-Jan-28 10:31N 46°57' E 032°00'0 0.0
2016-Jan-28 09:31N 46°57' E 032°00'0 0.0
2016-Jan-28 08:31N 46°57' E 032°00'0 0.0
2016-Jan-28 07:31N 46°57' E 032°00'0 0.0
2016-Jan-28 06:31N 46°57' E 032°00'0 0.0
2016-Jan-28 05:31N 46°57' E 032°00'0 0.0
2016-Jan-28 04:31N 46°57' E 032°00'0 0.0
2016-Jan-28 03:31N 46°57' E 032°00'0 0.0
2016-Jan-28 02:31N 46°57' E 032°00'0 0.0
2016-Jan-28 01:28N 46°57' E 032°00'0 0.0
2016-Jan-28 00:31N 46°57' E 032°00'0 0.0
2016-Jan-27 23:31N 46°57' E 032°00'0 0.0
2016-Jan-27 22:31N 46°57' E 032°00'0 0.0
2016-Jan-27 21:31N 46°57' E 032°00'0 0.0
2016-Jan-27 20:31N 46°57' E 032°00'0 0.0
2016-Jan-27 19:31N 46°57' E 032°00'0 0.0
2016-Jan-27 18:31N 46°57' E 032°00'0 0.0
2016-Jan-27 17:31N 46°57' E 032°00'0 0.0
2016-Jan-27 16:31N 46°57' E 032°00'0 0.0
2016-Jan-27 15:31N 46°57' E 032°00'0 0.0
2016-Jan-27 14:31N 46°57' E 032°00'0 0.0
2016-Jan-27 13:31N 46°57' E 032°00'0 0.0
2016-Jan-27 12:31N 46°57' E 032°00'0 0.0
2016-Jan-27 11:31N 46°57' E 032°00'0 0.0
2016-Jan-27 10:31N 46°57' E 032°00'0 0.0
2016-Jan-27 09:31N 46°57' E 032°00'0 0.0
2016-Jan-27 08:31N 46°57' E 032°00'0 0.0
2016-Jan-27 07:31N 46°57' E 032°00'0 0.0
2016-Jan-27 06:31N 46°57' E 032°00'0 0.0
2016-Jan-27 05:31N 46°57' E 032°00'0 0.0
2016-Jan-27 04:31N 46°57' E 032°00'0 0.0
2016-Jan-27 03:33N 46°57' E 032°00'0 0.5
2016-Jan-27 02:31N 46°56' E 032°01'3 2.8
2016-Jan-27 01:33N 46°54' E 032°00'8 8.2
2016-Jan-27 00:33N 46°47' E 031°53'8 8.0
2016-Jan-26 23:33N 46°39' E 031°56'  
Track history (hours):
 
Tides and Currents Weather Stations Pressure Air Temp Water Temp Dewpoint Dewpoint Depression Visibility Wind Speed Wind Dir Waves Ship Positions

Gokay K

Last reported at 2016-Jan-30 22:14 UTC. Time now 2016-Feb-08 16:52 UTC.
Position N 46°15' E 030°55'.
Warning: this ship's position is 8 days out of date.

Length 118 m; draft 7.5 m.

Type: Ship. MMSI: 271000029.

Date/timePositionNaut miles runAvg speedWind from/ knotsBaromVisibWave heightAir tempDewpointWater temp
2016-Jan-30 22:14N 46°15' E 030°55'7 7.7
2016-Jan-30 21:17N 46°22' E 030°55'6 8.1
2016-Jan-30 20:30N 46°28' E 030°55'41 6.7
2016-Jan-30 14:21N 46°38' E 031°53'6 8.2
2016-Jan-30 13:33N 46°44' E 031°56'7 6.5
2016-Jan-30 12:33N 46°50' E 031°56'7 6.5
2016-Jan-30 11:33N 46°56' E 032°01'1 1.2
2016-Jan-30 10:31N 46°57' E 032°00'0 0.0
2016-Jan-30 09:31N 46°57' E 032°00'0 0.0
2016-Jan-30 08:28N 46°57' E 032°00'0 0.0
2016-Jan-30 07:31N 46°57' E 032°00'0 0.0
2016-Jan-30 06:31N 46°57' E 032°00'0 0.0
2016-Jan-30 05:31N 46°57' E 032°00'0 0.0
2016-Jan-30 04:31N 46°57' E 032°00'0 0.0
2016-Jan-30 03:31N 46°57' E 032°00'0 0.0
2016-Jan-30 02:31N 46°57' E 032°00'0 0.0
2016-Jan-30 01:31N 46°57' E 032°00'0 0.0
2016-Jan-30 00:31N 46°57' E 032°00'0 0.0
2016-Jan-29 23:31N 46°57' E 032°00'0 0.0
2016-Jan-29 22:31N 46°57' E 032°00'0 0.0
2016-Jan-29 21:31N 46°57' E 032°00'0 0.0
2016-Jan-29 20:31N 46°57' E 032°00'0 0.0
2016-Jan-29 19:31N 46°57' E 032°00'0 0.0
2016-Jan-29 18:31N 46°57' E 032°00'0 0.0
2016-Jan-29 17:31N 46°57' E 032°00'0 0.0
2016-Jan-29 16:31N 46°57' E 032°00'0 0.0
2016-Jan-29 15:31N 46°57' E 032°00'0 0.0
2016-Jan-29 14:31N 46°57' E 032°00'0 0.0
2016-Jan-29 13:31N 46°57' E 032°00'0 0.0
2016-Jan-29 12:22N 46°57' E 032°00'0 0.0
2016-Jan-29 11:31N 46°57' E 032°00'0 0.0
2016-Jan-29 10:31N 46°57' E 032°00'0 0.0
2016-Jan-29 09:31N 46°57' E 032°00'0 0.0
2016-Jan-29 08:31N 46°57' E 032°00'0 0.0
2016-Jan-29 07:31N 46°57' E 032°00'0 0.0
2016-Jan-29 06:31N 46°57' E 032°00'0 0.0
2016-Jan-29 05:31N 46°57' E 032°00'0 0.0
2016-Jan-29 04:31N 46°57' E 032°00'0 0.0
2016-Jan-29 03:31N 46°57' E 032°00'0 0.0
2016-Jan-29 02:31N 46°57' E 032°00'0 0.0
2016-Jan-29 01:31N 46°57' E 032°00'0 0.0
2016-Jan-29 00:31N 46°57' E 032°00'0 0.0
2016-Jan-28 23:31N 46°57' E 032°00'0 0.0
2016-Jan-28 22:31N 46°57' E 032°00'0 0.0
2016-Jan-28 21:31N 46°57' E 032°00'0 0.0
2016-Jan-28 20:31N 46°57' E 032°00'0 0.0
2016-Jan-28 19:31N 46°57' E 032°00'0 0.0
2016-Jan-28 18:31N 46°57' E 032°00'0 0.0
2016-Jan-28 17:31N 46°57' E 032°00'0 0.0
2016-Jan-28 16:31N 46°57' E 032°00'0 0.0
2016-Jan-28 15:31N 46°57' E 032°00'0 0.0
2016-Jan-28 14:31N 46°57' E 032°00'0 0.0
2016-Jan-28 13:31N 46°57' E 032°00'0 0.0
2016-Jan-28 12:31N 46°57' E 032°00'0 0.0
2016-Jan-28 11:31N 46°57' E 032°00'0 0.0
2016-Jan-28 10:31N 46°57' E 032°00'0 0.0
2016-Jan-28 09:31N 46°57' E 032°00'0 0.0
2016-Jan-28 08:31N 46°57' E 032°00'0 0.0
2016-Jan-28 07:31N 46°57' E 032°00'0 0.0
2016-Jan-28 06:31N 46°57' E 032°00'0 0.0
2016-Jan-28 05:31N 46°57' E 032°00'0 0.0
2016-Jan-28 04:31N 46°57' E 032°00'0 0.0
2016-Jan-28 03:31N 46°57' E 032°00'0 0.0
2016-Jan-28 02:31N 46°57' E 032°00'0 0.0
2016-Jan-28 01:28N 46°57' E 032°00'0 0.0
2016-Jan-28 00:31N 46°57' E 032°00'0 0.0
2016-Jan-27 23:31N 46°57' E 032°00'0 0.0
2016-Jan-27 22:31N 46°57' E 032°00'0 0.0
2016-Jan-27 21:31N 46°57' E 032°00'0 0.0
2016-Jan-27 20:31N 46°57' E 032°00'0 0.0
2016-Jan-27 19:31N 46°57' E 032°00'0 0.0
2016-Jan-27 18:31N 46°57' E 032°00'0 0.0
2016-Jan-27 17:31N 46°57' E 032°00'0 0.0
2016-Jan-27 16:31N 46°57' E 032°00'0 0.0
2016-Jan-27 15:31N 46°57' E 032°00'0 0.0
2016-Jan-27 14:31N 46°57' E 032°00'0 0.0
2016-Jan-27 13:31N 46°57' E 032°00'0 0.0
2016-Jan-27 12:31N 46°57' E 032°00'0 0.0
2016-Jan-27 11:31N 46°57' E 032°00'0 0.0
2016-Jan-27 10:31N 46°57' E 032°00'0 0.0
2016-Jan-27 09:31N 46°57' E 032°00'0 0.0
2016-Jan-27 08:31N 46°57' E 032°00'0 0.0
2016-Jan-27 07:31N 46°57' E 032°00'0 0.0
2016-Jan-27 06:31N 46°57' E 032°00'0 0.0
2016-Jan-27 05:31N 46°57' E 032°00'0 0.0
2016-Jan-27 04:31N 46°57' E 032°00'0 0.0
2016-Jan-27 03:33N 46°57' E 032°00'0 0.5
2016-Jan-27 02:31N 46°56' E 032°01'3 2.8
2016-Jan-27 01:33N 46°54' E 032°00'8 8.2
2016-Jan-27 00:33N 46°47' E 031°53'8 8.0
2016-Jan-26 23:33N 46°39' E 031°56'  

Dump ship's entire track history